Latest Weather Observations for Gabo Island

IDN60801

Issued at 3:22 pm EDT Thursday 15 November 2018 (issued every 10 minutes, with the page automatically refreshed every 10 minutes)

About weather observations | Map of weather stations | Latest weather observations for NSW | Other Formats
Station Details ID: 084016 Name: GABO ISLAND LIGHTHOUSE Lat: -37.57 Lon: 149.92 Height: 15.2 m
Data from the previous 72 hours. | See also: Recent months at Gabo Island
Date/Time
EDT
Temp
°C
App
Temp
°C
Dew
Point
°C
Rel
Hum
%
Delta-T
°C
Wind Press
QNH
hPa
Press
MSL
hPa
Rain since
9am
mm
Dir  Spd
km/h
Gust
km/h
Spd
kts
Gust
kts
15/03:00pm 16.3 7.0 9.1 62 3.7 SW 48 57 26 31 1022.0 1022.0 0.0
15/02:30pm 16.3 7.3 8.9 61 3.8 SW 46 54 25 29 1022.2 - 0.0
15/02:00pm 16.5 7.2 9.1 61 3.8 SW 48 56 26 30 1022.0 - 0.0
15/01:30pm 17.0 8.8 10.4 65 3.5 SW 44 54 24 29 1021.9 - 0.0
15/01:00pm 16.8 7.1 9.0 60 4.0 SW 50 59 27 32 1021.8 - 0.0
15/12:30pm 16.7 7.3 10.0 64 3.5 SW 50 59 27 32 1021.8 - 0.0
15/12:00pm 16.3 6.8 9.8 65 3.4 SW 50 61 27 33 1021.6 1021.6 0.0
15/11:30am 15.9 6.4 9.7 66 3.2 SW 50 61 27 33 1021.6 - 0.0
15/11:00am 16.3 7.3 10.4 68 3.1 SW 48 61 26 33 1021.5 - 0.0
15/10:30am 16.1 7.5 10.2 68 3.1 SW 46 56 25 30 1021.2 - 0.0
15/10:00am 16.2 8.0 10.3 68 3.1 SW 44 54 24 29 1021.2 - 0.0
15/09:30am 15.6 7.6 10.5 71 2.7 SW 43 52 23 28 1020.9 - 0.0
15/09:00am 15.3 7.9 11.2 76 2.2 WSW 41 52 22 28 1020.8 1020.8 3.4
15/08:30am 14.9 6.6 11.5 80 1.8 SW 46 56 25 30 1020.5 - 3.4
15/08:01am 14.6 7.6 12.6 88 1.1 WSW 41 59 22 32 1019.9 - 3.4
15/08:00am 14.8 7.8 12.6 87 1.2 WSW 41 52 22 28 1020.0 - 3.4
15/07:30am 14.2 7.3 12.9 92 0.7 WSW 41 50 22 27 1019.5 - 3.4
15/07:00am 14.8 9.0 12.8 88 1.1 WSW 35 44 19 24 1018.9 - 3.2
15/06:30am 14.8 9.5 12.6 87 1.2 WSW 32 37 17 20 1018.3 - 3.2
15/06:00am 14.6 10.1 12.6 88 1.1 WSW 28 35 15 19 1018.1 1018.0 3.2
15/05:30am 14.6 9.7 12.6 88 1.1 WSW 30 35 16 19 1017.6 - 3.2
15/05:00am 14.7 8.8 12.5 87 1.2 WSW 35 43 19 23 1017.3 - 3.2
15/04:30am 14.5 9.6 12.7 89 1.0 WSW 30 39 16 21 1017.1 - 3.2
15/04:00am 14.4 9.1 12.6 89 1.0 WSW 32 35 17 19 1017.1 - 3.2
15/03:30am 14.4 8.7 13.1 92 0.7 SW 35 44 19 24 1017.0 - 3.2
15/03:00am 14.5 7.8 13.4 93 0.6 SW 41 56 22 30 1017.1 1017.1 3.2
15/02:54am 14.7 8.4 13.4 92 0.7 SW 39 56 21 30 1017.1 - 3.2
15/02:30am 14.9 10.7 13.6 92 0.7 WSW 28 33 15 18 1017.1 - 3.2
15/02:00am 14.9 9.0 13.5 91 0.8 WSW 37 46 20 25 1017.0 - 3.2
15/01:30am 14.8 8.9 14.8 100 0.0 SW 39 46 21 25 1017.1 - 3.0
15/01:00am 15.2 8.9 14.7 97 0.3 SW 41 50 22 27 1017.0 - 2.8
15/12:30am 15.7 10.3 15.0 96 0.4 SW 37 43 20 23 1016.8 - 2.8
15/12:00am 16.6 13.2 15.7 94 0.5 SW 28 35 15 19 1016.9 1016.8 2.4
 
Date/Time
EDT
Temp
°C
App
Temp
°C
Dew
Point
°C
Rel
Hum
%
Delta-T
°C
Wind Press
QNH
hPa
Press
MSL
hPa
Rain since
9am
mm
Dir  Spd
km/h
Gust
km/h
Spd
kts
Gust
kts
14/11:30pm 17.0 15.5 16.2 95 0.5 SW 19 20 10 11 1016.5 - 2.4
14/11:00pm 16.9 16.1 16.2 96 0.4 SW 15 17 8 9 1016.1 - 2.4
14/10:30pm 17.0 17.0 16.3 96 0.4 SW 11 15 6 8 1016.0 - 2.4
14/10:00pm 17.1 15.6 16.4 96 0.4 SSW 19 20 10 11 1016.2 - 2.4
14/09:30pm 16.6 16.9 16.1 97 0.3 WSW 9 11 5 6 1015.9 - 2.4
14/09:00pm 16.6 16.8 15.7 94 0.5 WSW 9 11 5 6 1015.5 1015.4 2.4
14/08:30pm 16.5 17.2 15.6 94 0.5 SSW 6 7 3 4 1015.1 - 2.4
14/08:00pm 16.5 18.0 15.6 94 0.5 SSW 2 6 1 3 1015.0 - 2.4
14/07:30pm 17.0 17.7 16.0 94 0.6 SSE 7 11 4 6 1014.4 - 2.4
14/07:00pm 17.7 18.1 16.4 92 0.8 SE 9 11 5 6 1014.1 - 2.4
14/06:30pm 18.8 19.7 16.5 86 1.4 S 7 11 4 6 1014.1 - 2.4
14/06:00pm 19.0 19.9 16.5 85 1.5 S 7 9 4 5 1014.0 1013.9 2.4
14/05:30pm 18.9 19.8 16.0 83 1.7 E 6 7 3 4 1013.6 - 2.4
14/05:00pm 19.0 20.0 16.8 87 1.3 E 7 7 4 4 1013.5 - 2.4
14/04:30pm 18.1 19.1 16.3 89 1.1 ENE 6 7 3 4 1013.3 - 2.4
14/04:00pm 18.3 19.6 17.0 92 0.8 W 6 9 3 5 1013.5 - 2.4
14/03:30pm 17.7 18.7 16.9 95 0.5 WSW 7 9 4 5 1013.8 - 2.4
14/03:00pm 17.6 18.2 16.8 95 0.5 WSW 9 13 5 7 1014.0 1014.0 2.4
14/02:30pm 18.1 17.9 16.8 92 0.8 SW 13 17 7 9 1014.2 - 2.4
14/02:00pm 18.5 19.5 16.8 90 1.0 SW 7 11 4 6 1014.3 - 2.4
14/01:30pm 18.8 20.5 17.1 90 1.0 N 4 7 2 4 1014.3 - 2.4
14/01:00pm 18.8 19.9 17.1 90 1.0 N 7 9 4 5 1014.2 - 2.4
14/12:30pm 18.6 19.0 17.3 92 0.8 N 11 13 6 7 1014.3 - 2.0
14/12:00pm 18.7 19.0 17.9 95 0.5 N 13 15 7 8 1014.4 1014.4 1.8
14/11:30am 18.5 18.3 17.5 94 0.6 N 15 19 8 10 1014.5 - 1.4
14/11:00am 18.1 17.3 17.1 94 0.6 N 17 20 9 11 1014.7 - 0.8
14/10:30am 18.1 16.7 16.9 93 0.7 N 20 26 11 14 1014.6 - 0.4
14/10:00am 18.1 16.9 17.1 94 0.6 N 19 24 10 13 1014.4 - 0.4
14/09:30am 18.2 17.1 17.2 94 0.6 N 19 22 10 12 1014.1 - 0.2
14/09:00am 18.4 17.3 17.4 94 0.6 N 19 22 10 12 1013.9 1014.0 2.0
14/08:30am 18.4 18.4 17.2 93 0.7 N 13 20 7 11 1013.4 - 1.4
14/08:00am 18.8 18.6 17.5 92 0.8 N 15 20 8 11 1013.0 - 1.4
14/07:30am 18.1 16.9 17.1 94 0.6 N 19 20 10 11 1012.8 - 1.4
14/07:00am 17.8 16.4 17.0 95 0.5 NNE 20 22 11 12 1012.6 - 1.4
14/06:30am 17.3 17.1 16.6 96 0.4 NNE 13 19 7 10 1012.6 - 1.4
14/06:00am 17.2 16.7 17.0 99 0.1 NNE 15 20 8 11 1012.4 1012.4 1.4
14/05:30am 17.3 16.1 17.0 98 0.2 NE 19 20 10 11 1012.0 - 1.4
14/05:00am 17.4 17.0 17.2 99 0.1 NNE 15 17 8 9 1011.8 - 1.2
14/04:30am 17.4 15.3 17.2 99 0.1 NNE 24 30 13 16 1011.9 - 0.8
14/04:00am 17.7 14.2 16.5 93 0.7 NNE 30 35 16 19 1011.5 - 0.6
14/03:30am 17.5 13.1 16.7 95 0.5 NE 35 39 19 21 1011.2 - 0.4
14/03:00am 17.7 15.7 16.5 93 0.7 NNE 22 26 12 14 1012.3 1012.4 0.2
14/02:30am 18.0 16.6 17.0 94 0.6 NNE 20 26 11 14 1012.7 - 0.2
14/02:00am 18.2 16.4 16.9 92 0.8 N 22 26 12 14 1013.2 - 0.0
14/01:30am 18.5 15.1 16.8 90 1.0 NNE 30 37 16 20 1013.2 - 0.0
14/01:00am 18.4 15.4 16.9 91 0.9 NNE 28 37 15 20 1013.2 - 0.0
14/12:30am 18.5 14.5 16.7 89 1.1 NNE 33 41 18 22 1013.3 - 0.0
14/12:00am 18.6 14.7 16.4 87 1.3 NNE 32 41 17 22 1013.3 1013.4 0.0
 
Date/Time
EDT
Temp
°C
App
Temp
°C
Dew
Point
°C
Rel
Hum
%
Delta-T
°C
Wind Press
QNH
hPa
Press
MSL
hPa
Rain since
9am
mm
Dir  Spd
km/h
Gust
km/h
Spd
kts
Gust
kts
13/11:30pm 18.7 14.1 16.2 85 1.5 NNE 35 43 19 23 1013.4 - 0.0
13/11:00pm 18.7 14.5 16.2 85 1.5 NNE 33 43 18 23 1013.6 - 0.0
13/10:30pm 18.8 14.5 15.8 83 1.8 NNE 33 41 18 22 1013.7 - 0.0
13/10:00pm 18.7 13.6 15.7 83 1.8 NNE 37 43 20 23 1013.8 - 0.0
13/09:30pm 18.8 14.0 15.6 82 1.9 NNE 35 44 19 24 1013.9 - 0.0
13/09:00pm 19.0 13.2 14.9 77 2.4 NNE 39 46 21 25 1013.5 1013.5 0.0
13/08:30pm 18.6 13.7 15.2 80 2.0 NNE 35 39 19 21 1013.5 - 0.0
13/08:00pm 18.6 13.0 15.4 81 1.9 NNE 39 46 21 25 1013.3 - 0.0
13/07:30pm 18.9 15.0 15.5 80 2.0 NNE 30 37 16 20 1013.4 - 0.0
13/07:00pm 18.6 16.9 15.7 83 1.7 NNE 19 24 10 13 1013.1 - 0.0
13/06:30pm 18.8 17.9 15.9 83 1.7 NNE 15 20 8 11 1012.8 - 0.0
13/06:00pm 19.0 15.6 15.8 82 1.9 NNE 28 32 15 17 1012.5 1012.5 0.0
13/05:30pm 19.6 16.6 15.9 79 2.2 NNE 26 32 14 17 1012.3 - 0.0
13/05:00pm 19.3 15.9 15.8 80 2.1 NNE 28 32 15 17 1012.4 - 0.0
13/04:30pm 20.0 17.6 15.4 75 2.7 NNE 22 28 12 15 1012.7 - 0.0
13/04:00pm 19.9 16.7 15.3 75 2.7 NE 26 37 14 20 1012.9 - 0.0
13/03:30pm 21.8 21.7 14.9 65 4.1 WNW 9 17 5 9 1013.7 - 0.0
13/03:10pm 20.3 17.4 15.0 71 3.1 N 24 54 13 29 1013.4 - 0.0
13/03:00pm 19.9 12.4 15.0 73 2.9 NNE 48 57 26 31 1012.1 1011.9 0.0
13/02:30pm 20.0 12.1 14.9 72 3.0 NNE 50 59 27 32 1011.8 - 0.0
13/02:00pm 19.7 11.8 14.9 74 2.8 NNE 50 59 27 32 1012.3 - 0.0
13/01:30pm 19.8 12.0 15.2 75 2.7 NNE 50 59 27 32 1012.5 - 0.0
13/01:00pm 21.0 12.9 15.3 70 3.4 NNE 52 63 28 34 1012.5 - 0.0
13/12:30pm 21.4 13.6 15.2 68 3.7 NNE 50 59 27 32 1013.1 - 0.0
13/12:00pm 21.7 13.9 15.1 66 3.9 NNE 50 59 27 32 1013.4 1013.3 0.0
13/11:30am 21.5 14.2 15.6 69 3.5 NNE 48 56 26 30 1013.6 - 0.0
13/11:00am 21.5 14.8 15.1 67 3.8 NNE 44 54 24 29 1013.9 - 0.0
13/10:30am 20.1 12.8 14.6 70 3.2 NNE 46 54 25 29 1013.9 - 0.0
13/10:00am 20.3 12.5 14.1 67 3.6 NNE 48 56 26 30 1014.0 - 0.0
13/09:30am 20.9 13.8 14.0 64 4.0 NNE 44 56 24 30 1014.2 - 0.0
13/09:00am 20.1 12.8 13.5 66 3.8 NNE 44 54 24 29 1014.4 1014.3 0.0
13/08:30am 20.0 12.9 13.9 68 3.5 NNE 44 54 24 29 1014.5 - 0.0
13/08:00am 19.5 12.4 13.5 68 3.4 NNE 43 52 23 28 1014.4 - 0.0
13/07:30am 19.1 11.5 13.5 70 3.2 NNE 46 57 25 31 1014.5 - 0.0
13/07:00am 18.3 10.8 13.9 75 2.5 NNE 46 57 25 31 1014.4 - 0.0
13/06:30am 18.0 9.8 14.0 77 2.3 NNE 50 65 27 35 1014.1 - 0.0
13/06:00am 17.7 9.9 15.3 86 1.4 NNE 50 61 27 33 1014.0 1014.0 0.0
13/05:38am 17.8 10.1 15.4 86 1.4 NNE 50 69 27 37 1013.9 - 0.0
13/05:30am 18.1 10.2 15.0 82 1.8 NNE 50 61 27 33 1013.9 - 0.0
13/05:00am 18.0 10.0 14.7 81 1.9 NNE 50 57 27 31 1014.1 - 0.0
13/04:30am 18.2 11.1 14.9 81 1.9 NNE 46 56 25 30 1014.4 - 0.0
13/04:00am 18.1 11.3 14.8 81 1.9 NNE 44 56 24 30 1014.6 - 0.0
13/03:30am 18.0 11.3 15.1 83 1.7 NNE 44 56 24 30 1015.0 - 0.0
13/03:00am 18.0 11.1 15.6 86 1.4 NNE 46 57 25 31 1015.0 1015.1 0.0
13/02:30am 18.1 12.1 15.4 84 1.6 NNE 41 59 22 32 1015.4 - 0.0
13/02:00am 18.2 11.2 15.3 83 1.7 NNE 46 61 25 33 1015.7 - 0.0
13/01:30am 18.2 11.2 15.3 83 1.7 NNE 46 59 25 32 1016.0 - 0.0
13/01:00am 18.3 10.5 15.2 82 1.8 NNE 50 65 27 35 1016.3 - 0.0
13/12:31am 18.5 10.7 15.3 81 1.9 NNE 50 69 27 37 1016.5 - 0.0
13/12:30am 18.4 11.0 15.3 82 1.8 NNE 48 63 26 34 1016.6 - 0.0
13/12:00am 18.4 11.4 15.3 82 1.8 NNE 46 59 25 32 1016.9 1017.0 0.0
 
Date/Time
EDT
Temp
°C
App
Temp
°C
Dew
Point
°C
Rel
Hum
%
Delta-T
°C
Wind Press
QNH
hPa
Press
MSL
hPa
Rain since
9am
mm
Dir  Spd
km/h
Gust
km/h
Spd
kts
Gust
kts
12/11:30pm 18.4 11.7 15.1 81 1.9 NNE 44 57 24 31 1017.3 - 0.0
12/11:00pm 18.5 11.7 14.9 79 2.1 NNE 44 57 24 31 1017.8 - 0.0
12/10:30pm 18.5 10.6 14.9 79 2.1 NNE 50 63 27 34 1017.6 - 0.0
12/10:00pm 18.5 10.1 14.7 78 2.2 NNE 52 63 28 34 1017.6 - 0.0
12/09:30pm 18.5 11.0 14.9 79 2.1 NNE 48 63 26 34 1017.6 - 0.0
12/09:00pm 18.5 10.7 15.1 80 2.0 NNE 50 59 27 32 1017.5 1017.5 0.0
12/08:30pm 18.4 10.6 15.1 81 1.9 NNE 50 59 27 32 1017.3 - 0.0
12/08:00pm 18.3 11.0 15.4 83 1.7 NNE 48 59 26 32 1017.3 - 0.0
12/07:30pm 18.5 10.8 15.4 82 1.8 NNE 50 61 27 33 1017.3 - 0.0
12/07:00pm 18.8 11.1 15.4 80 2.0 NNE 50 61 27 33 1017.3 - 0.0
12/06:30pm 19.1 11.4 15.5 79 2.1 NNE 50 59 27 32 1017.3 - 0.0
12/06:00pm 19.3 11.6 15.6 79 2.2 NNE 50 61 27 33 1017.1 1017.1 0.0
12/05:30pm 19.6 11.0 15.2 76 2.6 NNE 54 69 29 37 1016.8 - 0.0
12/05:00pm 20.1 11.9 15.2 73 2.9 NNE 52 63 28 34 1017.0 - 0.0
12/04:30pm 20.1 11.9 15.2 73 2.9 NNE 52 65 28 35 1017.0 - 0.0
12/04:00pm 20.2 11.5 14.9 71 3.1 NE 54 63 29 34 1016.9 - 0.0
12/03:30pm 20.5 12.2 14.9 70 3.3 NE 52 61 28 33 1017.3 - 0.0

Other Formats:

Comma delimited format used in spreadsheet applications
http://www.bom.gov.au/fwo/IDN60801/IDN60801.94933.axf

JavaScript Object Notation format (JSON) in row-major order
http://www.bom.gov.au/fwo/IDN60801/IDN60801.94933.json